createdAt,value
2023-02-23T00:00:45.974Z,5.80
2023-02-23T00:01:45.997Z,5.50
2023-02-23T00:02:46.165Z,5.30
2023-02-23T00:03:46.046Z,5.10
2023-02-23T00:04:46.040Z,5.30
2023-02-23T00:05:46.062Z,5.60
2023-02-23T00:06:46.173Z,5.10
2023-02-23T00:07:46.087Z,5.40
2023-02-23T00:08:46.110Z,5.40
2023-02-23T00:09:46.126Z,5.30
2023-02-23T00:10:46.135Z,5.50
2023-02-23T00:11:46.161Z,5.50
2023-02-23T00:12:46.167Z,5.50
2023-02-23T00:13:46.198Z,5.30
2023-02-23T00:14:46.201Z,5.20
2023-02-23T00:15:46.225Z,5.10
2023-02-23T00:16:46.241Z,4.80
2023-02-23T00:17:46.255Z,5.10
2023-02-23T00:18:46.288Z,5.30
2023-02-23T00:19:46.314Z,5.10
2023-02-23T00:20:46.303Z,5.40
2023-02-23T00:21:46.323Z,4.90
2023-02-23T00:22:46.343Z,5.10
2023-02-23T00:23:46.353Z,5.10
2023-02-23T00:24:46.360Z,5.40
2023-02-23T00:25:46.378Z,5.00
2023-02-23T00:26:46.399Z,4.80
2023-02-23T00:27:46.410Z,5.20
2023-02-23T00:28:46.428Z,5.30
2023-02-23T00:29:46.451Z,5.30
2023-02-23T00:30:46.493Z,5.00
2023-02-23T00:31:46.606Z,5.00
2023-02-23T00:32:46.573Z,5.00
2023-02-23T00:33:46.515Z,4.70
2023-02-23T00:34:46.535Z,4.70
2023-02-23T00:35:46.574Z,4.70
2023-02-23T00:36:46.558Z,5.20
2023-02-23T00:37:46.582Z,5.10
2023-02-23T00:38:46.589Z,5.10
2023-02-23T00:39:46.605Z,4.90
2023-02-23T00:40:46.631Z,4.90
2023-02-23T00:41:46.687Z,5.00
2023-02-23T00:42:46.655Z,4.80
2023-02-23T00:43:46.677Z,5.10
2023-02-23T00:44:46.694Z,4.80
2023-02-23T00:45:46.767Z,4.80
2023-02-23T00:46:46.726Z,4.70
2023-02-23T00:47:46.744Z,4.90
2023-02-23T00:48:46.751Z,4.80
2023-02-23T00:49:46.798Z,4.40
2023-02-23T00:50:46.792Z,5.00
2023-02-23T00:51:46.854Z,4.70
2023-02-23T00:52:46.826Z,4.70
2023-02-23T00:53:46.836Z,4.70
2023-02-23T00:54:46.858Z,4.60
2023-02-23T00:55:46.873Z,4.50
2023-02-23T00:56:46.889Z,4.40
2023-02-23T00:57:46.904Z,4.40
2023-02-23T00:58:46.913Z,4.40
2023-02-23T00:59:46.934Z,4.60
2023-02-23T01:00:46.949Z,4.60
2023-02-23T01:01:47.080Z,4.70
2023-02-23T01:02:46.982Z,4.50
2023-02-23T01:03:46.992Z,4.60
2023-02-23T01:04:47.024Z,4.50
2023-02-23T01:05:47.034Z,4.60
2023-02-23T01:06:47.048Z,4.70
2023-02-23T01:07:47.140Z,4.70
2023-02-23T01:08:47.069Z,4.70
2023-02-23T01:09:47.093Z,4.50
2023-02-23T01:10:47.111Z,4.80
2023-02-23T01:11:47.212Z,4.60
2023-02-23T01:12:47.133Z,4.60
2023-02-23T01:13:47.168Z,4.50
2023-02-23T01:14:47.170Z,4.50
2023-02-23T01:15:47.228Z,4.50
2023-02-23T01:16:47.208Z,4.70
2023-02-23T01:17:47.221Z,4.50
2023-02-23T01:18:47.249Z,4.50
2023-02-23T01:19:47.245Z,4.60
2023-02-23T01:20:47.287Z,4.50
2023-02-23T01:21:47.285Z,4.50
2023-02-23T01:22:47.312Z,4.60
2023-02-23T01:23:47.329Z,4.60
2023-02-23T01:24:47.329Z,4.50
2023-02-23T01:25:47.345Z,4.60
2023-02-23T01:26:47.362Z,4.70
2023-02-23T01:27:47.369Z,4.40
2023-02-23T01:28:47.395Z,4.30
2023-02-23T01:29:47.411Z,4.40
2023-02-23T01:30:47.554Z,4.40
2023-02-23T01:31:47.656Z,4.30
2023-02-23T01:32:47.466Z,4.50
2023-02-23T01:33:47.486Z,4.40
2023-02-23T01:34:47.481Z,4.30
2023-02-23T01:35:47.507Z,4.50
2023-02-23T01:36:47.518Z,4.60
2023-02-23T01:37:47.531Z,4.30
2023-02-23T01:38:47.546Z,4.50
2023-02-23T01:39:47.594Z,4.30
2023-02-23T01:40:47.586Z,4.40
2023-02-23T01:41:47.603Z,4.30
2023-02-23T01:42:47.624Z,4.30
2023-02-23T01:43:47.635Z,4.30
2023-02-23T01:44:47.651Z,4.30
2023-02-23T01:45:47.698Z,4.30
2023-02-23T01:46:47.685Z,4.30
2023-02-23T01:47:47.699Z,4.50
2023-02-23T01:48:47.716Z,4.40
2023-02-23T01:49:47.730Z,4.00
2023-02-23T01:50:47.749Z,4.50
2023-02-23T01:51:47.768Z,4.00
2023-02-23T01:52:47.782Z,4.30
2023-02-23T01:53:47.792Z,4.20
2023-02-23T01:54:47.803Z,4.10
2023-02-23T01:55:47.846Z,3.90
2023-02-23T01:56:47.836Z,4.40
2023-02-23T01:57:47.859Z,4.00
2023-02-23T01:58:47.878Z,4.30
2023-02-23T01:59:47.894Z,4.10
2023-02-23T02:00:47.907Z,4.10
2023-02-23T02:01:47.944Z,4.30
2023-02-23T02:02:47.935Z,4.10
2023-02-23T02:03:47.954Z,4.20
2023-02-23T02:04:48.048Z,4.30
2023-02-23T02:05:47.986Z,4.30
2023-02-23T02:06:48.004Z,4.00
2023-02-23T02:07:48.017Z,4.20
2023-02-23T02:08:48.030Z,4.30
2023-02-23T02:09:48.051Z,4.20
2023-02-23T02:10:48.071Z,4.20
2023-02-23T02:11:48.105Z,4.00
2023-02-23T02:12:48.095Z,4.20
2023-02-23T02:13:48.115Z,4.30
2023-02-23T02:14:48.124Z,4.00
2023-02-23T02:15:48.173Z,4.00
2023-02-23T02:16:48.155Z,4.10
2023-02-23T02:17:48.179Z,4.00
2023-02-23T02:18:48.195Z,4.00
2023-02-23T02:19:48.212Z,4.30
2023-02-23T02:20:48.227Z,4.20
2023-02-23T02:21:48.236Z,4.20
2023-02-23T02:22:48.255Z,4.40
2023-02-23T02:23:48.274Z,4.10
2023-02-23T02:24:48.311Z,4.10
2023-02-23T02:25:48.300Z,4.20
2023-02-23T02:26:48.316Z,4.10
2023-02-23T02:27:48.359Z,4.10
2023-02-23T02:28:48.357Z,4.10
2023-02-23T02:29:48.369Z,4.20
2023-02-23T02:30:48.434Z,4.10
2023-02-23T02:31:48.479Z,4.20
2023-02-23T02:32:48.420Z,4.10
2023-02-23T02:33:48.435Z,4.10
2023-02-23T02:34:48.447Z,4.20
2023-02-23T02:35:48.469Z,4.00
2023-02-23T02:36:48.503Z,4.30
2023-02-23T02:37:48.494Z,4.10
2023-02-23T02:38:48.514Z,4.30
2023-02-23T02:39:48.523Z,4.20
2023-02-23T02:40:48.541Z,4.10
2023-02-23T02:41:48.562Z,4.20
2023-02-23T02:42:48.579Z,4.00
2023-02-23T02:43:48.608Z,4.00
2023-02-23T02:44:48.604Z,4.30
2023-02-23T02:45:48.671Z,4.50
2023-02-23T02:46:48.638Z,4.30
2023-02-23T02:47:48.660Z,4.30
2023-02-23T02:48:48.676Z,4.60
2023-02-23T02:49:48.692Z,4.60
2023-02-23T02:50:48.700Z,4.30
2023-02-23T02:51:48.719Z,4.50
2023-02-23T02:52:48.740Z,4.50
2023-02-23T02:53:48.755Z,4.20
2023-02-23T02:54:48.766Z,4.40
2023-02-23T02:55:48.788Z,4.80
2023-02-23T02:56:48.801Z,4.40
2023-02-23T02:57:48.821Z,4.40
2023-02-23T02:58:48.836Z,4.80
2023-02-23T02:59:48.877Z,4.40
2023-02-23T03:00:48.870Z,4.40
2023-02-23T03:01:48.964Z,4.70
2023-02-23T03:02:48.899Z,4.50
2023-02-23T03:03:48.913Z,4.30
2023-02-23T03:04:48.937Z,4.80
2023-02-23T03:05:48.959Z,4.20
2023-02-23T03:06:48.959Z,4.30
2023-02-23T03:07:48.982Z,4.50
2023-02-23T03:08:49.000Z,4.60
2023-02-23T03:09:49.010Z,4.70
2023-02-23T03:10:49.031Z,4.60
2023-02-23T03:11:50.153Z,4.50
2023-02-23T03:12:49.059Z,4.50
2023-02-23T03:13:49.070Z,4.30
2023-02-23T03:14:49.096Z,4.50
2023-02-23T03:15:49.251Z,4.50
2023-02-23T03:16:49.124Z,4.40
2023-02-23T03:17:49.133Z,4.70
2023-02-23T03:18:49.149Z,4.50
2023-02-23T03:19:49.164Z,4.50
2023-02-23T03:20:49.180Z,4.60
2023-02-23T03:21:49.204Z,4.70
2023-02-23T03:22:49.219Z,4.40
2023-02-23T03:23:49.234Z,4.70
2023-02-23T03:24:49.251Z,4.90
2023-02-23T03:25:49.269Z,4.50
2023-02-23T03:26:49.283Z,4.60
2023-02-23T03:27:49.299Z,4.60
2023-02-23T03:28:49.308Z,4.50
2023-02-23T03:29:49.332Z,4.80
2023-02-23T03:30:49.394Z,4.60
2023-02-23T03:31:49.466Z,4.50
2023-02-23T03:32:49.370Z,4.40
2023-02-23T03:33:49.399Z,4.80
2023-02-23T03:34:49.412Z,4.60
2023-02-23T03:35:49.419Z,4.60
2023-02-23T03:36:49.435Z,4.70
2023-02-23T03:37:49.462Z,4.60
2023-02-23T03:38:49.470Z,4.60
2023-02-23T03:39:49.489Z,4.90
2023-02-23T03:40:49.506Z,4.80
2023-02-23T03:41:49.523Z,4.60
2023-02-23T03:42:49.534Z,4.90
2023-02-23T03:43:49.554Z,5.00
2023-02-23T03:44:49.591Z,4.70
2023-02-23T03:45:49.606Z,4.60
2023-02-23T03:46:49.605Z,4.60
2023-02-23T03:47:49.636Z,4.60
2023-02-23T03:48:49.633Z,4.60
2023-02-23T03:49:49.649Z,4.50
2023-02-23T03:50:49.656Z,4.60
2023-02-23T03:51:49.680Z,4.80
2023-02-23T03:52:49.696Z,4.50
2023-02-23T03:53:49.713Z,4.50
2023-02-23T03:54:49.725Z,5.00
2023-02-23T03:55:49.743Z,4.90
2023-02-23T03:56:49.761Z,4.90
2023-02-23T03:57:49.769Z,4.70
2023-02-23T03:58:49.791Z,4.40
2023-02-23T03:59:49.797Z,4.40
2023-02-23T04:00:49.812Z,4.70
2023-02-23T04:01:49.852Z,4.90
2023-02-23T04:02:49.850Z,4.80
2023-02-23T04:03:49.941Z,4.70
2023-02-23T04:04:49.896Z,4.70
2023-02-23T04:05:49.891Z,4.70
2023-02-23T04:06:49.914Z,4.60
2023-02-23T04:07:49.935Z,4.60
2023-02-23T04:08:49.938Z,4.60
2023-02-23T04:09:49.957Z,4.70
2023-02-23T04:10:49.981Z,4.60
2023-02-23T04:11:50.093Z,4.70
2023-02-23T04:12:50.003Z,4.60
2023-02-23T04:13:50.017Z,4.80
2023-02-23T04:14:50.040Z,4.60
2023-02-23T04:15:50.058Z,4.90
2023-02-23T04:16:50.137Z,4.70
2023-02-23T04:17:50.088Z,4.90
2023-02-23T04:18:50.095Z,4.80
2023-02-23T04:19:50.132Z,4.80
2023-02-23T04:20:50.146Z,4.60
2023-02-23T04:21:50.143Z,4.70
2023-02-23T04:22:50.166Z,4.60
2023-02-23T04:23:50.182Z,4.60
2023-02-23T04:24:50.196Z,4.90
2023-02-23T04:25:50.206Z,4.70
2023-02-23T04:26:50.228Z,4.80
2023-02-23T04:27:50.245Z,4.50
2023-02-23T04:28:50.254Z,5.00
2023-02-23T04:29:50.279Z,5.10
2023-02-23T04:30:50.325Z,4.50
2023-02-23T04:31:50.474Z,4.70
2023-02-23T04:32:50.399Z,4.90
2023-02-23T04:33:50.343Z,4.90
2023-02-23T04:34:50.357Z,4.50
2023-02-23T04:35:50.395Z,4.90
2023-02-23T04:36:50.391Z,4.70
2023-02-23T04:37:50.405Z,4.60
2023-02-23T04:38:50.414Z,4.60
2023-02-23T04:39:50.429Z,4.90
2023-02-23T04:40:50.799Z,4.50
2023-02-23T04:41:50.467Z,4.50
2023-02-23T04:42:50.490Z,4.30
2023-02-23T04:43:50.494Z,4.60
2023-02-23T04:44:50.516Z,4.80
2023-02-23T04:45:50.588Z,4.80
2023-02-23T04:46:50.541Z,4.90
2023-02-23T04:47:50.562Z,4.40
2023-02-23T04:48:50.572Z,4.80
2023-02-23T04:49:50.596Z,4.60
2023-02-23T04:50:50.605Z,4.60
2023-02-23T04:51:50.707Z,4.30
2023-02-23T04:52:50.642Z,5.10
2023-02-23T04:53:50.671Z,4.70
2023-02-23T04:54:50.670Z,4.70
2023-02-23T04:55:50.685Z,4.60
2023-02-23T04:56:50.703Z,4.70
2023-02-23T04:57:50.727Z,4.70
2023-02-23T04:58:50.746Z,5.00
2023-02-23T04:59:50.747Z,4.80
2023-02-23T05:00:50.769Z,4.70
2023-02-23T05:01:50.791Z,4.70
2023-02-23T05:02:50.935Z,4.80
2023-02-23T05:03:50.817Z,4.40
2023-02-23T05:04:50.928Z,4.50
2023-02-23T05:05:50.850Z,4.60
2023-02-23T05:06:50.857Z,4.80
2023-02-23T05:07:50.899Z,4.50
2023-02-23T05:08:50.896Z,4.60
2023-02-23T05:09:50.911Z,4.60
2023-02-23T05:10:50.919Z,4.50
2023-02-23T05:11:50.939Z,4.20
2023-02-23T05:12:50.961Z,4.60
2023-02-23T05:13:50.967Z,4.70
2023-02-23T05:14:50.993Z,4.50
2023-02-23T05:15:51.005Z,4.60
2023-02-23T05:16:51.017Z,4.70
2023-02-23T05:17:51.039Z,4.50
2023-02-23T05:18:51.053Z,4.80
2023-02-23T05:19:51.061Z,4.40
2023-02-23T05:20:51.088Z,4.50
2023-02-23T05:21:51.106Z,4.60
2023-02-23T05:22:51.109Z,4.40
2023-02-23T05:23:51.143Z,4.70
2023-02-23T05:24:51.151Z,4.50
2023-02-23T05:25:51.156Z,4.40
2023-02-23T05:26:51.174Z,4.40
2023-02-23T05:27:51.209Z,4.50
2023-02-23T05:28:51.204Z,4.60
2023-02-23T05:29:51.227Z,4.60
2023-02-23T05:30:51.402Z,4.70
2023-02-23T05:31:51.334Z,4.60
2023-02-23T05:32:51.274Z,4.70
2023-02-23T05:33:51.298Z,4.40
2023-02-23T05:34:51.306Z,4.60
2023-02-23T05:35:51.320Z,4.70
2023-02-23T05:36:51.336Z,4.80
2023-02-23T05:37:51.350Z,4.50
2023-02-23T05:38:51.358Z,4.60
2023-02-23T05:39:51.392Z,4.30
2023-02-23T05:40:51.398Z,4.50
2023-02-23T05:41:51.407Z,4.50
2023-02-23T05:42:51.426Z,4.80
2023-02-23T05:43:51.435Z,4.50
2023-02-23T05:44:51.453Z,4.60
2023-02-23T05:45:51.518Z,4.70
2023-02-23T05:46:51.489Z,4.70
2023-02-23T05:47:51.504Z,4.60
2023-02-23T05:48:51.512Z,4.80
2023-02-23T05:49:51.537Z,4.40
2023-02-23T05:50:51.552Z,4.50
2023-02-23T05:51:51.561Z,4.60
2023-02-23T05:52:51.582Z,4.40
2023-02-23T05:53:51.599Z,4.40
2023-02-23T05:54:51.643Z,4.60
2023-02-23T05:55:51.647Z,4.40
2023-02-23T05:56:51.641Z,4.30
2023-02-23T05:57:51.672Z,4.20
2023-02-23T05:58:51.723Z,4.30
2023-02-23T05:59:51.694Z,4.50
2023-02-23T06:00:51.703Z,4.60
2023-02-23T06:01:51.726Z,4.60
2023-02-23T06:02:51.802Z,4.00
2023-02-23T06:03:51.910Z,4.60
2023-02-23T06:04:51.773Z,4.50
2023-02-23T06:05:51.789Z,4.70
2023-02-23T06:06:51.796Z,4.10
2023-02-23T06:07:51.821Z,4.40
2023-02-23T06:08:51.829Z,4.30
2023-02-23T06:09:51.848Z,4.50
2023-02-23T06:10:51.861Z,4.50
2023-02-23T06:11:51.906Z,4.50
2023-02-23T06:12:51.892Z,4.30
2023-02-23T06:13:51.915Z,4.40
2023-02-23T06:14:51.931Z,4.10
2023-02-23T06:15:51.990Z,4.30
2023-02-23T06:16:52.004Z,4.30
2023-02-23T06:17:51.977Z,4.40
2023-02-23T06:18:51.998Z,4.70
2023-02-23T06:19:52.011Z,4.40
2023-02-23T06:20:52.028Z,4.70
2023-02-23T06:21:52.034Z,4.60
2023-02-23T06:22:52.051Z,4.40
2023-02-23T06:23:52.077Z,4.50
2023-02-23T06:24:52.086Z,4.60
2023-02-23T06:25:52.103Z,4.40
2023-02-23T06:26:52.112Z,4.20
2023-02-23T06:27:52.152Z,4.50
2023-02-23T06:28:52.141Z,4.70
2023-02-23T06:29:52.158Z,4.40
2023-02-23T06:30:52.221Z,4.70
2023-02-23T06:31:52.301Z,4.30
2023-02-23T06:32:52.205Z,4.60
2023-02-23T06:33:52.230Z,4.60
2023-02-23T06:34:52.242Z,4.60
2023-02-23T06:35:52.252Z,4.60
2023-02-23T06:36:52.275Z,4.60
2023-02-23T06:37:52.283Z,4.30
2023-02-23T06:38:52.306Z,4.50
2023-02-23T06:39:52.321Z,4.60
2023-02-23T06:40:52.334Z,4.40
2023-02-23T06:41:52.348Z,4.80
2023-02-23T06:42:52.369Z,4.40
2023-02-23T06:43:52.399Z,4.70
2023-02-23T06:44:52.404Z,4.30
2023-02-23T06:45:52.415Z,4.60
2023-02-23T06:46:52.488Z,4.60
2023-02-23T06:47:52.444Z,4.60
2023-02-23T06:48:52.463Z,4.70
2023-02-23T06:49:52.473Z,4.30
2023-02-23T06:50:52.537Z,4.70
2023-02-23T06:51:52.514Z,4.60
2023-02-23T06:52:52.524Z,4.60
2023-02-23T06:53:52.552Z,4.50
2023-02-23T06:54:52.555Z,4.90
2023-02-23T06:55:52.575Z,4.90
2023-02-23T06:56:52.587Z,4.80
2023-02-23T06:57:52.594Z,4.70
2023-02-23T06:58:52.618Z,4.60
2023-02-23T06:59:52.655Z,4.50
2023-02-23T07:00:52.649Z,4.70
2023-02-23T07:01:52.687Z,4.80
2023-02-23T07:02:52.681Z,4.70
2023-02-23T07:03:52.715Z,4.50
2023-02-23T07:04:52.714Z,4.60
2023-02-23T07:05:52.730Z,4.70
2023-02-23T07:06:52.733Z,4.70
2023-02-23T07:07:52.757Z,4.40
2023-02-23T07:08:52.785Z,4.50
2023-02-23T07:09:52.780Z,4.60
2023-02-23T07:10:52.795Z,4.60
2023-02-23T07:11:52.817Z,4.60
2023-02-23T07:12:52.837Z,4.90
2023-02-23T07:13:52.846Z,4.70
2023-02-23T07:14:52.859Z,4.60
2023-02-23T07:15:52.902Z,4.50
2023-02-23T07:16:52.887Z,4.50
2023-02-23T07:17:53.001Z,4.80
2023-02-23T07:18:52.927Z,4.70
2023-02-23T07:19:52.943Z,4.60
2023-02-23T07:20:52.966Z,4.80
2023-02-23T07:21:52.972Z,4.80
2023-02-23T07:22:52.986Z,4.40
2023-02-23T07:23:53.002Z,4.80
2023-02-23T07:24:53.014Z,4.50
2023-02-23T07:25:53.042Z,4.60
2023-02-23T07:26:53.041Z,4.60
2023-02-23T07:27:53.057Z,4.70
2023-02-23T07:28:54.257Z,4.50
2023-02-23T07:29:53.094Z,4.40
2023-02-23T07:30:53.136Z,4.60
2023-02-23T07:31:53.253Z,4.70
2023-02-23T07:32:53.134Z,4.70
2023-02-23T07:33:53.150Z,4.50
2023-02-23T07:34:53.958Z,4.40
2023-02-23T07:35:53.196Z,4.70
2023-02-23T07:36:53.198Z,4.80
2023-02-23T07:37:53.214Z,5.00
2023-02-23T07:38:53.234Z,4.70
2023-02-23T07:39:53.248Z,4.80
2023-02-23T07:40:53.272Z,5.00
2023-02-23T07:41:53.294Z,4.60
2023-02-23T07:42:53.303Z,4.70
2023-02-23T07:43:53.322Z,4.60
2023-02-23T07:44:53.326Z,4.90
2023-02-23T07:45:53.372Z,4.60
2023-02-23T07:46:53.397Z,4.80
2023-02-23T07:47:53.446Z,4.70
2023-02-23T07:48:53.390Z,4.50
2023-02-23T07:49:53.424Z,4.80
2023-02-23T07:50:53.426Z,4.60
2023-02-23T07:51:53.437Z,4.60
2023-02-23T07:52:53.453Z,4.70
2023-02-23T07:53:53.469Z,4.50
2023-02-23T07:54:53.483Z,4.60
2023-02-23T07:55:53.503Z,4.60
2023-02-23T07:56:53.515Z,4.60
2023-02-23T07:57:53.538Z,5.00
2023-02-23T07:58:53.553Z,4.80
2023-02-23T07:59:53.569Z,4.60
2023-02-23T08:00:53.609Z,4.70
2023-02-23T08:01:53.601Z,5.00
2023-02-23T08:02:53.609Z,4.60
2023-02-23T08:03:53.649Z,4.70
2023-02-23T08:04:53.648Z,4.80
2023-02-23T08:05:53.667Z,4.40
2023-02-23T08:06:53.680Z,4.50
2023-02-23T08:07:53.704Z,4.60
2023-02-23T08:08:53.709Z,4.90
2023-02-23T08:09:53.733Z,4.50
2023-02-23T08:10:53.742Z,4.70
2023-02-23T08:11:53.763Z,4.50
2023-02-23T08:12:53.801Z,4.90
2023-02-23T08:13:53.788Z,4.50
2023-02-23T08:14:53.796Z,5.00
2023-02-23T08:15:53.818Z,4.60
2023-02-23T08:16:53.899Z,4.60
2023-02-23T08:17:53.864Z,4.70
2023-02-23T08:18:53.858Z,4.70
2023-02-23T08:19:53.920Z,4.40
2023-02-23T08:20:53.893Z,4.80
2023-02-23T08:21:53.912Z,4.50
2023-02-23T08:22:53.926Z,4.90
2023-02-23T08:23:53.935Z,4.40
2023-02-23T08:24:53.961Z,4.60
2023-02-23T08:25:53.976Z,4.60
2023-02-23T08:26:53.988Z,4.30
2023-02-23T08:27:54.007Z,4.70
2023-02-23T08:28:54.026Z,4.10
2023-02-23T08:29:54.029Z,4.50
2023-02-23T08:30:54.177Z,4.60
2023-02-23T08:31:54.223Z,4.40
2023-02-23T08:32:54.075Z,4.80
2023-02-23T08:33:54.099Z,4.50
2023-02-23T08:34:54.113Z,4.40
2023-02-23T08:35:54.232Z,4.30
2023-02-23T08:36:54.153Z,4.50
2023-02-23T08:37:54.154Z,4.50
2023-02-23T08:38:54.212Z,4.40
2023-02-23T08:39:54.188Z,4.40
2023-02-23T08:40:54.200Z,4.20
2023-02-23T08:41:54.222Z,4.70
2023-02-23T08:42:54.233Z,4.60
2023-02-23T08:43:54.253Z,4.70
2023-02-23T08:44:54.270Z,4.50
2023-02-23T08:45:54.289Z,4.70
2023-02-23T08:46:54.298Z,4.60
2023-02-23T08:47:54.309Z,4.50
2023-02-23T08:48:54.328Z,4.50
2023-02-23T08:49:54.351Z,4.50
2023-02-23T08:50:54.438Z,4.50
2023-02-23T08:51:54.385Z,4.60
2023-02-23T08:52:54.394Z,4.60
2023-02-23T08:53:54.397Z,4.60
2023-02-23T08:54:54.412Z,4.80
2023-02-23T08:55:54.429Z,4.30
2023-02-23T08:56:54.451Z,4.40
2023-02-23T08:57:54.468Z,4.30
2023-02-23T08:58:54.473Z,4.50
2023-02-23T08:59:54.489Z,4.50
2023-02-23T09:00:54.519Z,4.30
2023-02-23T09:01:54.605Z,4.30
2023-02-23T09:02:54.546Z,4.60
2023-02-23T09:03:54.558Z,4.60
2023-02-23T09:04:54.574Z,4.50
2023-02-23T09:05:54.589Z,4.60
2023-02-23T09:06:54.604Z,4.50
2023-02-23T09:07:54.639Z,4.60
2023-02-23T09:08:54.637Z,4.30
2023-02-23T09:09:54.647Z,4.90
2023-02-23T09:10:54.678Z,4.60
2023-02-23T09:11:54.673Z,4.50
2023-02-23T09:12:54.700Z,4.60
2023-02-23T09:13:54.712Z,4.20
2023-02-23T09:14:54.725Z,4.60
2023-02-23T09:15:54.776Z,4.80
2023-02-23T09:16:54.758Z,4.50
2023-02-23T09:17:54.777Z,4.70
2023-02-23T09:18:54.781Z,4.40
2023-02-23T09:19:54.805Z,4.50
2023-02-23T09:20:54.821Z,4.40
2023-02-23T09:21:54.828Z,4.50
2023-02-23T09:22:54.849Z,4.50
2023-02-23T09:23:54.891Z,4.40
2023-02-23T09:24:54.882Z,4.40
2023-02-23T09:25:54.895Z,4.20
2023-02-23T09:26:54.918Z,4.60
2023-02-23T09:27:54.922Z,4.20
2023-02-23T09:28:54.944Z,4.30
2023-02-23T09:29:54.965Z,4.40
2023-02-23T09:30:55.002Z,4.40
2023-02-23T09:31:55.099Z,4.40
2023-02-23T09:32:55.001Z,4.60
2023-02-23T09:33:55.015Z,4.60
2023-02-23T09:34:55.037Z,4.40
2023-02-23T09:35:55.047Z,4.80
2023-02-23T09:36:55.066Z,4.50
2023-02-23T09:37:55.088Z,4.50
2023-02-23T09:38:55.112Z,4.40
2023-02-23T09:39:57.080Z,4.40
2023-02-23T09:40:55.140Z,4.30
2023-02-23T09:41:55.150Z,4.60
2023-02-23T09:42:55.152Z,4.20
2023-02-23T09:43:55.170Z,4.40
2023-02-23T09:44:55.194Z,4.60
2023-02-23T09:45:55.223Z,4.40
2023-02-23T09:46:55.222Z,4.40
2023-02-23T09:47:55.232Z,4.80
2023-02-23T09:48:55.254Z,4.40
2023-02-23T09:49:55.262Z,4.70
2023-02-23T09:50:55.285Z,4.80
2023-02-23T09:51:55.294Z,4.60
2023-02-23T09:52:55.610Z,4.50
2023-02-23T09:53:55.330Z,4.50
2023-02-23T09:54:55.397Z,4.70
2023-02-23T09:55:55.384Z,4.50
2023-02-23T09:56:55.381Z,4.60
2023-02-23T09:57:55.397Z,4.50
2023-02-23T09:58:55.404Z,4.30
2023-02-23T09:59:55.426Z,4.60
2023-02-23T10:00:55.445Z,4.70
2023-02-23T10:01:55.517Z,4.60
2023-02-23T10:02:55.467Z,4.70
2023-02-23T10:03:55.482Z,4.90
2023-02-23T10:04:57.335Z,4.50
2023-02-23T10:05:55.531Z,4.20
2023-02-23T10:06:55.536Z,4.40
2023-02-23T10:07:55.553Z,4.50
2023-02-23T10:08:55.560Z,4.50
2023-02-23T10:09:55.666Z,4.60
2023-02-23T10:10:55.598Z,4.90
2023-02-23T10:11:55.649Z,4.50
2023-02-23T10:12:55.631Z,4.30
2023-02-23T10:13:55.645Z,4.60
2023-02-23T10:14:55.660Z,4.10
2023-02-23T10:15:55.701Z,4.60
2023-02-23T10:16:55.686Z,4.40
2023-02-23T10:17:55.699Z,4.50
2023-02-23T10:18:55.715Z,4.70
2023-02-23T10:19:55.729Z,4.30
2023-02-23T10:20:55.753Z,4.80
2023-02-23T10:21:55.770Z,4.40
2023-02-23T10:22:55.876Z,4.60
2023-02-23T10:23:55.793Z,4.60
2023-02-23T10:24:55.952Z,4.70
2023-02-23T10:25:55.830Z,4.40
2023-02-23T10:26:55.846Z,4.40
2023-02-23T10:27:55.975Z,4.90
2023-02-23T10:28:55.879Z,4.70
2023-02-23T10:29:55.892Z,4.70
2023-02-23T10:30:56.096Z,4.80
2023-02-23T10:31:55.994Z,4.60
2023-02-23T10:32:55.931Z,4.30
2023-02-23T10:33:55.946Z,4.50
2023-02-23T10:34:55.969Z,4.60
2023-02-23T10:36:07.414Z,4.60
2023-02-23T10:36:56.004Z,4.40
2023-02-23T10:37:56.015Z,4.60
2023-02-23T10:38:56.029Z,4.80
2023-02-23T10:39:56.037Z,4.40
2023-02-23T10:40:56.052Z,4.40
2023-02-23T10:41:56.076Z,4.40
2023-02-23T10:42:56.092Z,4.50
2023-02-23T10:43:58.716Z,4.60
2023-02-23T10:44:56.126Z,4.40
2023-02-23T10:45:56.137Z,4.80
2023-02-23T10:46:56.183Z,4.50
2023-02-23T10:47:56.168Z,4.50
2023-02-23T10:48:56.175Z,4.60
2023-02-23T10:49:56.211Z,4.50
2023-02-23T10:50:56.208Z,4.70
2023-02-23T10:51:56.221Z,4.70
2023-02-23T10:52:56.238Z,4.50
2023-02-23T10:53:56.265Z,4.70
2023-02-23T10:54:56.268Z,4.80
2023-02-23T10:55:56.301Z,4.50
2023-02-23T10:56:56.298Z,4.80
2023-02-23T10:57:56.322Z,4.80
2023-02-23T10:58:56.343Z,4.80
2023-02-23T10:59:56.376Z,4.90
2023-02-23T11:00:56.388Z,4.80
2023-02-23T11:02:02.386Z,4.80
2023-02-23T11:02:56.391Z,4.40
2023-02-23T11:04:05.680Z,4.60
2023-02-23T11:04:56.483Z,4.50
2023-02-23T11:05:56.442Z,5.00
2023-02-23T11:06:56.459Z,4.60
2023-02-23T11:07:56.474Z,4.60
2023-02-23T11:08:56.487Z,4.70
2023-02-23T11:09:56.508Z,4.80
2023-02-23T11:10:56.520Z,4.80
2023-02-23T11:11:56.538Z,4.90
2023-02-23T11:12:56.541Z,4.60
2023-02-23T11:13:56.555Z,4.70
2023-02-23T11:14:56.571Z,4.60
2023-02-23T11:15:56.660Z,5.00
2023-02-23T11:16:56.602Z,4.50
2023-02-23T11:17:56.632Z,4.40
2023-02-23T11:18:56.688Z,4.60
2023-02-23T11:19:56.649Z,4.60
2023-02-23T11:20:56.662Z,4.30
2023-02-23T11:21:56.686Z,4.30
2023-02-23T11:22:58.972Z,4.60
2023-02-23T11:23:56.722Z,4.60
2023-02-23T11:24:56.804Z,4.60
2023-02-23T11:25:56.746Z,4.80
2023-02-23T11:26:56.770Z,4.90
2023-02-23T11:27:56.773Z,4.40
2023-02-23T11:28:56.787Z,4.50
2023-02-23T11:29:56.822Z,4.90
2023-02-23T11:30:56.851Z,4.40
2023-02-23T11:31:57.019Z,4.40
2023-02-23T11:32:56.874Z,4.30
2023-02-23T11:33:56.866Z,4.50
2023-02-23T11:34:57.037Z,4.40
2023-02-23T11:35:56.904Z,4.30
2023-02-23T11:36:56.919Z,4.10
2023-02-23T11:37:57.016Z,4.50
2023-02-23T11:38:56.961Z,4.40
2023-02-23T11:39:56.989Z,4.60
2023-02-23T11:40:56.984Z,4.60
2023-02-23T11:41:56.988Z,4.00
2023-02-23T11:42:57.013Z,4.00
2023-02-23T11:43:57.057Z,4.20
2023-02-23T11:44:57.051Z,4.40
2023-02-23T11:45:57.082Z,4.20
2023-02-23T11:46:57.181Z,4.30
2023-02-23T11:47:57.120Z,4.50
2023-02-23T11:48:57.105Z,4.20
2023-02-23T11:49:57.111Z,4.50
2023-02-23T11:50:57.138Z,4.30
2023-02-23T11:51:57.149Z,4.40
2023-02-23T11:52:57.154Z,4.20
2023-02-23T11:53:57.176Z,4.20
2023-02-23T11:54:57.281Z,4.20
2023-02-23T11:55:57.204Z,4.30
2023-02-23T11:56:57.227Z,4.00
2023-02-23T11:57:57.240Z,4.30
2023-02-23T11:58:57.251Z,4.00
2023-02-23T11:59:57.267Z,4.10
2023-02-23T12:00:57.289Z,4.00
2023-02-23T12:01:57.306Z,4.30
2023-02-23T12:02:57.348Z,4.20
2023-02-23T12:03:57.355Z,4.10
2023-02-23T12:04:58.206Z,4.00
2023-02-23T12:05:57.367Z,4.20
2023-02-23T12:06:57.452Z,4.20
2023-02-23T12:07:57.394Z,4.00
2023-02-23T12:08:57.413Z,3.90
2023-02-23T12:09:57.470Z,4.20
2023-02-23T12:10:57.485Z,4.10
2023-02-23T12:11:57.461Z,4.30
2023-02-23T12:12:57.471Z,4.00
2023-02-23T12:13:57.491Z,3.90
2023-02-23T12:14:57.524Z,3.80
2023-02-23T12:15:57.522Z,3.70
2023-02-23T12:16:57.540Z,3.90
2023-02-23T12:17:57.548Z,3.80
2023-02-23T12:18:57.574Z,4.10
2023-02-23T12:19:57.659Z,3.80
2023-02-23T12:20:57.599Z,4.20
2023-02-23T12:21:57.608Z,4.00
2023-02-23T12:22:57.623Z,3.90
2023-02-23T12:23:57.641Z,3.80
2023-02-23T12:24:57.661Z,3.80
2023-02-23T12:25:57.678Z,4.00
2023-02-23T12:26:57.692Z,4.30
2023-02-23T12:27:59.077Z,4.00
2023-02-23T12:28:57.712Z,3.80
2023-02-23T12:29:57.742Z,3.90
2023-02-23T12:30:57.791Z,3.90
2023-02-23T12:31:57.953Z,3.80
2023-02-23T12:32:57.775Z,4.00
2023-02-23T12:33:57.792Z,3.60
2023-02-23T12:34:57.808Z,3.80
2023-02-23T12:35:57.849Z,4.20
2023-02-23T12:36:57.835Z,4.20
2023-02-23T12:37:57.858Z,3.90
2023-02-23T12:38:57.874Z,4.10
2023-02-23T12:39:57.879Z,3.50
2023-02-23T12:40:57.905Z,4.00
2023-02-23T12:41:57.912Z,4.10
2023-02-23T12:42:57.935Z,3.80
2023-02-23T12:43:57.949Z,3.80
2023-02-23T12:44:57.973Z,3.80
2023-02-23T12:45:58.010Z,3.80
2023-02-23T12:46:57.996Z,3.80
2023-02-23T12:47:58.012Z,3.90
2023-02-23T12:48:58.021Z,3.60
2023-02-23T12:49:58.039Z,3.60
2023-02-23T12:50:58.057Z,3.60
2023-02-23T12:51:58.082Z,3.90
2023-02-23T12:52:58.092Z,3.80
2023-02-23T12:53:58.103Z,4.00
2023-02-23T12:54:58.112Z,3.80
2023-02-23T12:55:58.127Z,3.70
2023-02-23T12:56:58.152Z,4.00
2023-02-23T12:57:58.162Z,3.50
2023-02-23T12:58:58.186Z,3.70
2023-02-23T12:59:58.194Z,3.50
2023-02-23T13:00:58.288Z,3.50
2023-02-23T13:01:58.219Z,3.80
2023-02-23T13:02:58.250Z,3.70
2023-02-23T13:03:58.262Z,3.70
2023-02-23T13:04:58.286Z,3.80
2023-02-23T13:05:58.284Z,3.40
2023-02-23T13:06:58.310Z,3.80
2023-02-23T13:08:04.723Z,3.70
2023-02-23T13:08:58.331Z,3.40
2023-02-23T13:09:58.354Z,3.50
2023-02-23T13:10:58.368Z,3.60
2023-02-23T13:11:58.387Z,3.40
2023-02-23T13:12:58.395Z,3.50
2023-02-23T13:13:58.418Z,3.80
2023-02-23T13:14:58.429Z,3.20
2023-02-23T13:15:58.449Z,3.40
2023-02-23T13:16:58.526Z,3.50
2023-02-23T13:17:58.472Z,3.60
2023-02-23T13:18:58.495Z,3.50